Terminal Aerodrome Forecast
Issued by NWS

Home | Current Version | Previous Version | Text Only | Print | Product List | Glossary On
Versions: 1 2 3 4 5 6 7 8 9 10 11 12 13 14 15 16 17 18 19 20 21 22
473
FTUS45 KRIW 281121
TAFJAC
TAF
KJAC 281121Z 2812/2912 01008KT P6SM VCSH SCT015 OVC035
      TEMPO 2812/2814 5SM -SN BKN015
     FM281500 36015G25KT P6SM VCSH SCT028 BKN050
     FM290100 36010KT P6SM SCT050 BKN080
      AMD LTD TO CLD VIS AND WIND=

USA.gov is the U.S. government's official web portal to all federal, state and local government web resources and services.